Weather History for Nacogdoches, TX

Change the Weather History Date:

Monday, May 13, 2013

  Actual Average Record
Temperature  
Mean Temperature 62 °F -  
Max Temperature 80 °F 81 °F 87 °F (2003)
Min Temperature 44 °F 60 °F 44 °F (2013)
Degree Days  
Heating Degree Days 3    
Growing Degree Days 12 (Base 50)    
Moisture  
Dew Point 47 °F    
Average Humidity 61    
Maximum Humidity 87    
Minimum Humidity 30    
Precipitation  
Precipitation 0.00 in - - ()
Sea Level Pressure  
Sea Level Pressure 30.23 in    
Wind  
Wind Speed 2 mph (South)    
Max Wind Speed 10 mph    
Max Gust Speed -    
Visibility 10 miles    
Events      
Averages and records for this station are not official NWS values.
T = Trace of Precipitation, MM = Missing Value Source: NWS Daily Summary

Daily Weather History Graph

Daily Weather History Graph

Search for Another Location

Airport:

Trip Planner

Search our weather history database for the weather conditions in past years. The results will help you decide how hot, cold, wet, or windy it might be!

Date:

Astronomy

May. 13, 2013 Rise Set
Actual Time 6:23 AM CDT 8:07 PM CDT
Civil Twilight 5:56 AM CDT 8:33 PM CDT
Nautical Twilight 5:24 AM CDT 9:05 PM CDT
Astronomical Twilight 4:51 AM CDT 9:39 PM CDT
Moon 9:11 AM CDT (5/13) 11:16 PM CDT (5/13)
Length of Visible Light 14h 36m
Length of Day
13h 43m
Waxing Crescent, 12% of the Moon is Illuminated
May 13
Waxing Crescent
May 17
First Quarter
May 24
Full
May 31
Last Quarter
Jun 8
New

Hourly Weather History & Observations

Time (CDT) Temp. Windchill Dew Point Humidity Pressure Visibility Wind Dir Wind Speed Gust Speed Precip Events Conditions
12:15 AM 48.2 °F - 44.6 °F 87% 30.21 in 10.0 mi Calm Calm - N/A   Clear
12:35 AM 48.2 °F - 42.8 °F 82% 30.21 in 10.0 mi Calm Calm - N/A   Clear
12:55 AM 48.2 °F - 42.8 °F 82% 30.21 in 10.0 mi Calm Calm - N/A   Clear
1:15 AM 48.2 °F - 44.6 °F 87% 30.21 in 10.0 mi Calm Calm - N/A   Clear
1:35 AM 48.2 °F - 42.8 °F 82% 30.20 in 10.0 mi Calm Calm - N/A   Clear
1:55 AM 46.4 °F - 42.8 °F 87% 30.20 in 10.0 mi Calm Calm - N/A   Clear
2:15 AM 48.2 °F - 42.8 °F 82% 30.20 in 10.0 mi Calm Calm - N/A   Clear
2:35 AM 46.4 °F - 42.8 °F 87% 30.20 in 10.0 mi Calm Calm - N/A   Clear
2:55 AM 46.4 °F - 42.8 °F 87% 30.20 in 10.0 mi Calm Calm - N/A   Clear
3:15 AM 46.4 °F - 42.8 °F 87% 30.20 in 10.0 mi Calm Calm - N/A   Clear
3:35 AM 46.4 °F - 42.8 °F 87% 30.20 in 10.0 mi Calm Calm - N/A   Clear
3:55 AM 46.4 °F - 41.0 °F 81% 30.21 in 10.0 mi Calm Calm - N/A   Clear
4:15 AM 46.4 °F - 41.0 °F 81% 30.21 in 10.0 mi Calm Calm - N/A   Clear
4:35 AM 46.4 °F 45.2 °F 41.0 °F 81% 30.21 in 10.0 mi North 3.5 mph - N/A   Clear
4:55 AM 44.6 °F - 41.0 °F 87% 30.21 in 10.0 mi Calm Calm - N/A   Clear
5:15 AM 44.6 °F - 39.2 °F 81% 30.20 in 10.0 mi Calm Calm - N/A   Clear
5:35 AM 44.6 °F - 41.0 °F 87% 30.20 in 10.0 mi Calm Calm - N/A   Clear
5:55 AM 44.6 °F - 39.2 °F 81% 30.21 in 10.0 mi Calm Calm - N/A   Clear
6:15 AM 44.6 °F - 39.2 °F 81% 30.22 in 10.0 mi Calm Calm - N/A   Clear
6:35 AM 44.6 °F - 39.2 °F 81% 30.23 in 10.0 mi Calm Calm - N/A   Clear
6:55 AM 44.6 °F - 39.2 °F 81% 30.25 in 10.0 mi Calm Calm - N/A   Clear
7:15 AM 46.4 °F - 42.8 °F 87% 30.25 in 10.0 mi Calm Calm - N/A   Clear
7:35 AM 48.2 °F - 44.6 °F 87% 30.26 in 10.0 mi Calm Calm - N/A   Clear
7:55 AM 51.8 °F - 46.4 °F 82% 30.27 in 10.0 mi Calm Calm - N/A   Clear
8:15 AM 55.4 °F - 48.2 °F 77% 30.28 in 10.0 mi Calm Calm - N/A   Clear
8:35 AM 60.8 °F - 51.8 °F 72% 30.28 in 10.0 mi SE 4.6 mph - N/A   Clear
8:55 AM 62.6 °F - 53.6 °F 72% 30.29 in 10.0 mi South 4.6 mph - N/A   Clear
9:15 AM 64.4 °F - 51.8 °F 64% 30.29 in 10.0 mi South 9.2 mph - N/A   Clear
9:35 AM 66.2 °F - 51.8 °F 60% 30.30 in 10.0 mi South 6.9 mph - N/A   Clear
9:55 AM 66.2 °F - 51.8 °F 60% 30.30 in 10.0 mi South 8.1 mph - N/A   Clear
10:15 AM 69.8 °F - 51.8 °F 53% 30.30 in 10.0 mi SSE 6.9 mph - N/A   Clear
10:35 AM 69.8 °F - 51.8 °F 53% 30.30 in 10.0 mi SSE 5.8 mph - N/A   Clear
10:55 AM 71.6 °F - 51.8 °F 50% 30.30 in 10.0 mi South 5.8 mph - N/A   Clear
11:15 AM 71.6 °F - 50.0 °F 46% 30.30 in 10.0 mi South 8.1 mph - N/A   Clear
11:35 AM 73.4 °F - 50.0 °F 44% 30.29 in 10.0 mi SSE 9.2 mph - N/A   Clear
11:55 AM 73.4 °F - 48.2 °F 41% 30.29 in 10.0 mi SSE 9.2 mph - N/A   Clear
12:15 PM 75.2 °F - 50.0 °F 41% 30.28 in 10.0 mi SSE 10.4 mph - N/A   Clear
12:35 PM 75.2 °F - 48.2 °F 38% 30.28 in 10.0 mi South 5.8 mph - N/A   Clear
12:55 PM 75.2 °F - 46.4 °F 36% 30.28 in 10.0 mi South 6.9 mph - N/A   Clear
1:15 PM 75.2 °F - 44.6 °F 34% 30.27 in 10.0 mi South 8.1 mph - N/A   Clear
1:35 PM 77.0 °F - 44.6 °F 32% 30.26 in 10.0 mi SE 10.4 mph - N/A   Clear
1:55 PM 78.8 °F - 48.2 °F 34% 30.25 in 10.0 mi South 6.9 mph - N/A   Clear
2:15 PM 78.8 °F - 48.2 °F 34% 30.25 in 10.0 mi SSW 5.8 mph - N/A   Clear
2:35 PM 78.8 °F - 46.4 °F 32% 30.24 in 10.0 mi South 8.1 mph - N/A   Clear
3:35 PM 80.6 °F - 48.2 °F 32% 30.23 in 10.0 mi South 4.6 mph - N/A   Clear
3:55 PM 80.6 °F - 48.2 °F 32% 30.22 in 10.0 mi Calm Calm - N/A   Clear
4:15 PM 80.6 °F - 50.0 °F 34% 30.22 in 10.0 mi SSW 8.1 mph - N/A   Clear
4:35 PM 80.6 °F - 48.2 °F 32% 30.21 in 10.0 mi South 8.1 mph - N/A   Clear
4:55 PM 80.6 °F - 48.2 °F 32% 30.21 in 10.0 mi Calm Calm - N/A   Clear
5:15 PM 80.6 °F - 48.2 °F 32% 30.20 in 10.0 mi South 9.2 mph - N/A   Clear
5:35 PM 80.6 °F - 48.2 °F 32% 30.20 in 10.0 mi South 9.2 mph - N/A   Clear
5:55 PM 80.6 °F - 46.4 °F 30% 30.19 in 10.0 mi South 8.1 mph - N/A   Clear
6:35 PM 80.6 °F - 48.2 °F 32% 30.18 in 10.0 mi South 8.1 mph - N/A   Clear
7:15 PM 78.8 °F - 48.2 °F 34% 30.18 in 10.0 mi South 5.8 mph - N/A   Clear
7:35 PM 75.2 °F - 48.2 °F 38% 30.18 in 10.0 mi SSE 3.5 mph - N/A   Clear
7:55 PM 71.6 °F - 55.4 °F 57% 30.18 in 10.0 mi SE 3.5 mph - N/A   Clear
8:15 PM 68.0 °F - 53.6 °F 60% 30.18 in 10.0 mi ESE 4.6 mph - N/A   Clear
8:35 PM 69.8 °F - 51.8 °F 53% 30.19 in 10.0 mi SE 4.6 mph - N/A   Clear
8:55 PM 66.2 °F - 51.8 °F 60% 30.19 in 10.0 mi SSE 4.6 mph - N/A   Clear
9:15 PM 64.4 °F - 53.6 °F 68% 30.19 in 10.0 mi SSE 3.5 mph - N/A   Clear
9:35 PM 64.4 °F - 51.8 °F 64% 30.20 in 10.0 mi Calm Calm - N/A   Clear
9:55 PM 62.6 °F - 51.8 °F 68% 30.20 in 10.0 mi Calm Calm - N/A   Clear
10:15 PM 60.8 °F - 51.8 °F 72% 30.21 in 10.0 mi South 4.6 mph - N/A   Clear
10:35 PM 64.4 °F - 51.8 °F 64% 30.21 in 10.0 mi South 5.8 mph - N/A   Clear
10:55 PM 64.4 °F - 50.0 °F 59% 30.21 in 10.0 mi South 5.8 mph - N/A   Clear
11:15 PM 64.4 °F - 50.0 °F 59% 30.21 in 10.0 mi South 5.8 mph - N/A   Clear
11:35 PM 64.4 °F - 48.2 °F 56% 30.21 in 10.0 mi South 4.6 mph - N/A   Clear
11:55 PM 62.6 °F - 48.2 °F 59% 30.21 in 10.0 mi SSW 3.5 mph - N/A   Clear